createdAt,value
2023-05-10T00:00:47.547Z,61.02
2023-05-10T00:03:18.689Z,60.81
2023-05-10T00:05:48.157Z,60.68
2023-05-10T00:08:19.334Z,60.86
2023-05-10T00:10:50.338Z,60.94
2023-05-10T00:13:19.728Z,60.99
2023-05-10T00:15:51.792Z,61.03
2023-05-10T00:18:23.741Z,60.91
2023-05-10T00:20:54.826Z,61.03
2023-05-10T00:23:24.329Z,60.99
2023-05-10T00:25:55.535Z,61.07
2023-05-10T00:28:26.559Z,61.27
2023-05-10T00:30:56.390Z,61.25
2023-05-10T00:33:27.498Z,61.52
2023-05-10T00:35:58.417Z,61.25
2023-05-10T00:38:29.258Z,61.22
2023-05-10T00:40:58.654Z,61.09
2023-05-10T00:43:29.875Z,60.99
2023-05-10T00:45:59.740Z,61.11
2023-05-10T00:48:32.187Z,60.93
2023-05-10T00:51:04.653Z,60.89
2023-05-10T00:53:36.487Z,60.95
2023-05-10T00:56:07.650Z,60.93
2023-05-10T00:58:39.339Z,61.08
2023-05-10T01:01:11.851Z,61.10
2023-05-10T01:03:43.718Z,60.93
2023-05-10T01:06:14.779Z,60.96
2023-05-10T01:08:46.145Z,60.80
2023-05-10T01:11:17.058Z,60.97
2023-05-10T01:13:54.712Z,60.94
2023-05-10T01:16:26.438Z,61.09
2023-05-10T01:18:57.970Z,61.07
2023-05-10T01:21:35.564Z,61.22
2023-05-10T01:24:23.583Z,61.22
2023-05-10T01:27:26.996Z,61.15
2023-05-10T01:30:30.966Z,61.43
2023-05-10T01:33:08.370Z,61.44
2023-05-10T01:35:45.227Z,61.64
2023-05-10T01:38:23.196Z,61.85
2023-05-10T01:41:06.369Z,61.77
2023-05-10T01:43:45.162Z,62.01
2023-05-10T01:46:22.871Z,62.01
2023-05-10T01:48:58.083Z,62.47
2023-05-10T01:51:35.905Z,62.35
2023-05-10T01:54:08.029Z,62.47
2023-05-10T01:56:42.722Z,62.55
2023-05-10T01:59:19.178Z,62.44
2023-05-10T02:01:52.297Z,62.23
2023-05-10T02:04:26.859Z,62.23
2023-05-10T02:06:59.428Z,62.31
2023-05-10T02:09:32.884Z,62.67
2023-05-10T02:12:07.692Z,62.50
2023-05-10T02:14:40.938Z,62.44
2023-05-10T02:17:13.514Z,62.38
2023-05-10T02:19:46.346Z,62.22
2023-05-10T02:22:19.484Z,62.34
2023-05-10T02:24:52.025Z,62.25
2023-05-10T02:27:24.330Z,62.37
2023-05-10T02:29:56.734Z,62.48
2023-05-10T02:32:29.935Z,62.71
2023-05-10T02:35:03.089Z,62.96
2023-05-10T02:37:36.529Z,63.03
2023-05-10T02:40:10.988Z,62.99
2023-05-10T02:42:46.693Z,63.24
2023-05-10T02:45:21.003Z,63.28
2023-05-10T02:47:52.548Z,63.18
2023-05-10T02:50:24.631Z,63.16
2023-05-10T02:53:01.745Z,63.13
2023-05-10T02:55:39.024Z,63.22
2023-05-10T02:58:10.656Z,63.12
2023-05-10T03:00:41.756Z,63.16
2023-05-10T03:03:13.066Z,63.08
2023-05-10T03:05:44.212Z,63.12
2023-05-10T03:08:15.325Z,62.97
2023-05-10T03:10:57.762Z,63.03
2023-05-10T03:13:37.706Z,62.98
2023-05-10T03:16:14.550Z,63.07
2023-05-10T03:18:53.061Z,63.19
2023-05-10T03:21:28.153Z,63.22
2023-05-10T03:24:07.678Z,63.18
2023-05-10T03:26:39.687Z,63.27
2023-05-10T03:29:12.466Z,63.29
2023-05-10T03:31:43.993Z,63.46
2023-05-10T03:34:15.371Z,63.37
2023-05-10T03:36:44.800Z,63.27
2023-05-10T03:39:16.097Z,63.08
2023-05-10T03:41:47.203Z,62.97
2023-05-10T03:44:18.414Z,63.11
2023-05-10T03:46:49.649Z,63.22
2023-05-10T03:49:21.061Z,63.31
2023-05-10T03:51:52.104Z,63.26
2023-05-10T03:54:23.445Z,62.97
2023-05-10T03:56:52.710Z,62.94
2023-05-10T03:59:23.874Z,62.86
2023-05-10T04:01:53.290Z,62.78
2023-05-10T04:04:24.405Z,62.62
2023-05-10T04:06:53.796Z,62.29
2023-05-10T04:09:24.882Z,62.29
2023-05-10T04:11:56.214Z,62.16
2023-05-10T04:14:27.545Z,61.84
2023-05-10T04:16:59.084Z,61.48
2023-05-10T04:19:32.894Z,60.72
2023-05-10T04:22:04.449Z,60.11
2023-05-10T04:24:35.603Z,59.19
2023-05-10T04:27:05.063Z,58.26
2023-05-10T04:29:35.962Z,57.45
2023-05-10T04:32:08.419Z,56.79
2023-05-10T04:34:39.774Z,56.26
2023-05-10T04:37:10.968Z,55.76
2023-05-10T04:39:42.172Z,55.20
2023-05-10T04:42:15.898Z,55.89
2023-05-10T04:44:47.052Z,55.94
2023-05-10T04:47:18.085Z,55.97
2023-05-10T04:49:49.232Z,55.66
2023-05-10T04:52:20.372Z,54.80
2023-05-10T04:54:51.968Z,54.21
2023-05-10T04:57:23.038Z,53.81
2023-05-10T04:59:54.253Z,53.22
2023-05-10T05:02:25.914Z,52.75
2023-05-10T05:04:58.743Z,51.86
2023-05-10T05:07:31.573Z,51.15
2023-05-10T05:10:02.794Z,50.97
2023-05-10T05:12:34.750Z,51.74
2023-05-10T05:15:09.006Z,52.11
2023-05-10T05:17:43.638Z,52.58
2023-05-10T05:20:16.516Z,53.11
2023-05-10T05:22:47.761Z,53.50
2023-05-10T05:25:19.464Z,54.01
2023-05-10T05:27:50.521Z,53.97
2023-05-10T05:30:22.079Z,54.64
2023-05-10T05:32:53.547Z,54.22
2023-05-10T05:35:26.097Z,54.67
2023-05-10T05:37:57.258Z,54.89
2023-05-10T05:40:28.177Z,55.31
2023-05-10T05:42:59.357Z,55.98
2023-05-10T05:45:30.468Z,55.90
2023-05-10T05:48:01.978Z,56.38
2023-05-10T05:50:33.229Z,56.00
2023-05-10T05:53:04.685Z,56.57
2023-05-10T05:55:36.461Z,57.00
2023-05-10T05:58:07.394Z,56.49
2023-05-10T06:00:38.491Z,57.23
2023-05-10T06:03:09.752Z,57.12
2023-05-10T06:05:40.994Z,56.87
2023-05-10T06:08:12.131Z,57.28
2023-05-10T06:10:43.452Z,57.22
2023-05-10T06:13:14.556Z,57.18
2023-05-10T06:15:46.445Z,57.22
2023-05-10T06:18:17.606Z,57.20
2023-05-10T06:20:49.204Z,57.00
2023-05-10T06:23:20.404Z,57.01
2023-05-10T06:25:51.329Z,57.25
2023-05-10T06:28:22.695Z,57.46
2023-05-10T06:30:54.026Z,56.87
2023-05-10T06:33:25.036Z,57.22
2023-05-10T06:35:56.082Z,57.17
2023-05-10T06:38:27.145Z,57.41
2023-05-10T06:40:58.177Z,57.16
2023-05-10T06:43:29.977Z,57.26
2023-05-10T06:46:01.390Z,57.44
2023-05-10T06:48:32.289Z,56.99
2023-05-10T06:51:03.604Z,56.61
2023-05-10T06:53:34.955Z,57.45
2023-05-10T06:56:06.405Z,56.95
2023-05-10T06:58:37.777Z,56.43
2023-05-10T07:01:09.353Z,56.40
2023-05-10T07:03:40.505Z,57.06
2023-05-10T07:06:15.636Z,57.27
2023-05-10T07:08:53.303Z,56.31
2023-05-10T07:11:25.074Z,56.13
2023-05-10T07:13:56.012Z,56.38
2023-05-10T07:16:27.661Z,56.48
2023-05-10T07:18:58.892Z,56.48
2023-05-10T07:21:30.269Z,56.37
2023-05-10T07:24:01.994Z,56.65
2023-05-10T07:26:33.142Z,56.27
2023-05-10T07:29:04.786Z,55.92
2023-05-10T07:31:36.215Z,56.31
2023-05-10T07:34:07.196Z,56.50
2023-05-10T07:36:38.662Z,55.80
2023-05-10T07:39:09.887Z,55.39
2023-05-10T07:41:41.296Z,55.25
2023-05-10T07:44:12.300Z,55.22
2023-05-10T07:46:43.843Z,54.96
2023-05-10T07:49:15.745Z,54.92
2023-05-10T07:51:46.836Z,55.14
2023-05-10T07:54:18.400Z,55.05
2023-05-10T07:56:49.422Z,55.42
2023-05-10T07:59:21.288Z,55.22
2023-05-10T08:01:52.458Z,54.61
2023-05-10T08:04:23.684Z,54.77
2023-05-10T08:06:54.827Z,54.00
2023-05-10T08:09:26.402Z,53.33
2023-05-10T08:12:00.495Z,53.86
2023-05-10T08:14:33.019Z,54.01
2023-05-10T08:17:04.710Z,53.77
2023-05-10T08:19:35.943Z,53.53
2023-05-10T08:22:07.578Z,53.22
2023-05-10T08:24:39.497Z,52.69
2023-05-10T08:27:10.630Z,52.81
2023-05-10T08:29:49.490Z,52.90
2023-05-10T08:32:21.013Z,52.77
2023-05-10T08:34:51.981Z,51.92
2023-05-10T08:37:23.052Z,51.59
2023-05-10T08:39:55.172Z,50.70
2023-05-10T08:42:28.327Z,49.82
2023-05-10T08:45:01.428Z,50.63
2023-05-10T08:47:33.031Z,51.01
2023-05-10T08:50:04.867Z,50.62
2023-05-10T08:52:40.807Z,49.84
2023-05-10T08:55:12.329Z,50.01
2023-05-10T08:57:43.390Z,50.70
2023-05-10T09:00:16.937Z,49.47
2023-05-10T09:02:48.450Z,49.54
2023-05-10T09:05:20.295Z,49.24
2023-05-10T09:07:51.494Z,48.66
2023-05-10T09:10:23.566Z,48.87
2023-05-10T09:12:56.928Z,47.67
2023-05-10T09:15:29.757Z,49.05
2023-05-10T09:18:03.412Z,48.65
2023-05-10T09:20:34.924Z,45.81
2023-05-10T09:23:06.126Z,45.80
2023-05-10T09:25:38.300Z,46.68
2023-05-10T09:28:12.103Z,45.04
2023-05-10T09:30:44.088Z,44.53
2023-05-10T09:33:15.276Z,44.92
2023-05-10T09:35:47.188Z,45.37
2023-05-10T09:38:18.095Z,44.59
2023-05-10T09:40:56.470Z,43.96
2023-05-10T09:43:28.300Z,43.92
2023-05-10T09:45:59.752Z,44.28
2023-05-10T09:48:30.673Z,43.90
2023-05-10T09:51:01.984Z,43.99
2023-05-10T09:53:33.940Z,43.69
2023-05-10T09:56:05.439Z,44.30
2023-05-10T09:58:40.147Z,44.41
2023-05-10T10:01:15.415Z,44.42
2023-05-10T10:03:47.468Z,45.15
2023-05-10T10:06:29.509Z,45.21
2023-05-10T10:09:01.553Z,44.89
2023-05-10T10:11:32.745Z,44.53
2023-05-10T10:14:04.042Z,44.29
2023-05-10T10:16:36.034Z,43.87
2023-05-10T10:19:08.379Z,45.02
2023-05-10T10:21:39.689Z,44.62
2023-05-10T10:24:11.247Z,43.74
2023-05-10T10:26:44.229Z,43.43
2023-05-10T10:29:34.946Z,43.58
2023-05-10T10:32:14.023Z,43.65
2023-05-10T10:34:45.168Z,44.01
2023-05-10T10:37:16.287Z,43.68
2023-05-10T10:39:50.012Z,43.96
2023-05-10T10:42:48.084Z,43.70
2023-05-10T10:45:19.670Z,43.49
2023-05-10T10:47:51.039Z,43.09
2023-05-10T10:50:22.212Z,43.84
2023-05-10T10:52:54.618Z,43.50
2023-05-10T10:55:27.598Z,43.94
2023-05-10T10:58:03.308Z,43.43
2023-05-10T11:00:35.672Z,43.60
2023-05-10T11:03:09.500Z,44.13
2023-05-10T11:05:42.842Z,43.36
2023-05-10T11:08:17.513Z,43.80
2023-05-10T11:11:04.429Z,43.42
2023-05-10T11:13:37.024Z,43.30
2023-05-10T11:16:20.091Z,42.65
2023-05-10T11:19:00.778Z,43.95
2023-05-10T11:21:32.496Z,43.73
2023-05-10T11:24:07.245Z,43.20
2023-05-10T11:26:39.319Z,42.53
2023-05-10T11:29:10.755Z,42.98
2023-05-10T11:31:47.835Z,43.40
2023-05-10T11:34:28.983Z,43.09
2023-05-10T11:37:00.514Z,42.80
2023-05-10T11:39:32.937Z,43.58
2023-05-10T11:42:04.404Z,43.53
2023-05-10T11:44:35.654Z,42.97
2023-05-10T11:47:07.561Z,43.30
2023-05-10T11:49:38.581Z,43.39
2023-05-10T11:52:12.023Z,42.37
2023-05-10T11:54:52.971Z,43.09
2023-05-10T11:57:29.570Z,42.55
2023-05-10T12:00:03.440Z,42.33
2023-05-10T12:02:34.871Z,42.31
2023-05-10T12:05:07.696Z,43.79
2023-05-10T12:07:38.958Z,43.43
2023-05-10T12:10:15.580Z,43.10
2023-05-10T12:12:45.754Z,43.50
2023-05-10T12:15:23.165Z,42.82
2023-05-10T12:17:55.134Z,42.57
2023-05-10T12:20:29.670Z,42.65
2023-05-10T12:23:03.097Z,42.71
2023-05-10T12:25:36.413Z,42.30
2023-05-10T12:28:10.932Z,42.07
2023-05-10T12:30:42.173Z,42.34
2023-05-10T12:33:16.195Z,41.81
2023-05-10T12:35:51.377Z,41.99
2023-05-10T12:38:34.807Z,42.25
2023-05-10T12:41:07.938Z,41.99
2023-05-10T12:43:39.801Z,42.20
2023-05-10T12:46:12.695Z,41.71
2023-05-10T12:48:45.466Z,41.72
2023-05-10T12:51:20.424Z,42.16
2023-05-10T12:53:51.420Z,42.65
2023-05-10T12:56:22.317Z,42.40
2023-05-10T12:58:53.522Z,41.91
2023-05-10T13:01:24.521Z,41.56
2023-05-10T13:03:55.457Z,41.71
2023-05-10T13:06:26.757Z,41.76
2023-05-10T13:08:58.743Z,42.04
2023-05-10T13:11:29.982Z,42.00
2023-05-10T13:14:01.271Z,41.72
2023-05-10T13:16:32.286Z,42.02
2023-05-10T13:19:03.934Z,42.18
2023-05-10T13:21:34.951Z,41.71
2023-05-10T13:24:06.698Z,41.91
2023-05-10T13:26:37.710Z,42.42
2023-05-10T13:29:08.819Z,42.67
2023-05-10T13:31:40.170Z,42.31
2023-05-10T13:34:11.503Z,42.50
2023-05-10T13:36:42.407Z,42.06
2023-05-10T13:39:14.299Z,42.72
2023-05-10T13:41:45.436Z,42.26
2023-05-10T13:44:17.478Z,42.01
2023-05-10T13:46:48.849Z,42.45
2023-05-10T13:49:19.799Z,41.77
2023-05-10T13:51:50.864Z,42.33
2023-05-10T13:54:23.162Z,42.05
2023-05-10T13:56:54.346Z,42.29
2023-05-10T13:59:25.678Z,41.90
2023-05-10T14:01:56.936Z,42.07
2023-05-10T14:04:28.577Z,42.03
2023-05-10T14:06:59.695Z,42.48
2023-05-10T14:09:31.544Z,42.23
2023-05-10T14:12:03.331Z,42.37
2023-05-10T14:14:34.492Z,42.78
2023-05-10T14:17:05.404Z,42.74
2023-05-10T14:19:36.452Z,40.89
2023-05-10T14:22:07.724Z,41.08
2023-05-10T14:24:38.783Z,40.66
2023-05-10T14:27:10.135Z,39.44
2023-05-10T14:29:41.279Z,39.82
2023-05-10T14:32:12.205Z,39.69
2023-05-10T14:34:43.279Z,39.84
2023-05-10T14:37:18.788Z,39.86
2023-05-10T14:39:49.792Z,40.15
2023-05-10T14:42:20.758Z,39.92
2023-05-10T14:44:51.932Z,39.52
2023-05-10T14:47:22.967Z,39.70
2023-05-10T14:49:54.221Z,39.28
2023-05-10T14:52:25.292Z,39.45
2023-05-10T14:54:56.252Z,39.37
2023-05-10T14:57:27.264Z,39.81
2023-05-10T14:59:58.446Z,40.39
2023-05-10T15:02:30.468Z,40.74
2023-05-10T15:05:01.970Z,40.58
2023-05-10T15:07:34.041Z,40.40
2023-05-10T15:10:05.809Z,40.57
2023-05-10T15:12:36.689Z,40.92
2023-05-10T15:15:09.437Z,39.96
2023-05-10T15:17:40.618Z,40.37
2023-05-10T15:20:13.101Z,40.29
2023-05-10T15:22:44.478Z,39.87
2023-05-10T15:25:16.987Z,39.76
2023-05-10T15:27:48.187Z,40.08
2023-05-10T15:30:19.485Z,39.56
2023-05-10T15:32:50.470Z,39.55
2023-05-10T15:35:22.079Z,39.33
2023-05-10T15:37:53.116Z,39.11
2023-05-10T15:40:24.077Z,39.27
2023-05-10T15:42:55.100Z,39.42
2023-05-10T15:45:26.232Z,39.84
2023-05-10T15:47:57.329Z,39.45
2023-05-10T15:50:28.820Z,38.68
2023-05-10T15:52:59.769Z,39.15
2023-05-10T15:55:31.559Z,39.01
2023-05-10T15:58:02.800Z,38.34
2023-05-10T16:00:34.418Z,38.46
2023-05-10T16:03:05.803Z,38.75
2023-05-10T16:05:36.948Z,38.29
2023-05-10T16:08:07.957Z,38.21
2023-05-10T16:10:39.016Z,38.29
2023-05-10T16:13:10.069Z,38.17
2023-05-10T16:15:41.928Z,38.24
2023-05-10T16:18:13.519Z,38.34
2023-05-10T16:20:44.630Z,38.02
2023-05-10T16:23:16.197Z,38.47
2023-05-10T16:25:47.212Z,38.52
2023-05-10T16:28:19.631Z,38.34
2023-05-10T16:30:50.708Z,38.73
2023-05-10T16:33:21.878Z,38.92
2023-05-10T16:35:52.889Z,39.39
2023-05-10T16:38:24.134Z,40.01
2023-05-10T16:40:55.435Z,40.22
2023-05-10T16:43:26.464Z,40.76
2023-05-10T16:45:57.605Z,40.76
2023-05-10T16:48:28.594Z,40.86
2023-05-10T16:50:59.485Z,41.34
2023-05-10T16:53:31.252Z,41.74
2023-05-10T16:56:02.403Z,41.93
2023-05-10T16:58:34.011Z,42.10
2023-05-10T17:01:05.195Z,42.30
2023-05-10T17:03:36.918Z,42.60
2023-05-10T17:06:10.218Z,43.02
2023-05-10T17:08:41.427Z,43.08
2023-05-10T17:11:12.450Z,43.08
2023-05-10T17:13:44.001Z,43.63
2023-05-10T17:16:15.047Z,43.62
2023-05-10T17:18:46.708Z,44.18
2023-05-10T17:21:17.804Z,44.51
2023-05-10T17:23:49.073Z,44.67
2023-05-10T17:26:20.115Z,45.00
2023-05-10T17:28:51.362Z,45.10
2023-05-10T17:31:22.722Z,45.28
2023-05-10T17:33:53.663Z,45.64
2023-05-10T17:36:24.656Z,46.20
2023-05-10T17:38:55.736Z,46.12
2023-05-10T17:41:26.826Z,46.29
2023-05-10T17:43:58.078Z,46.45
2023-05-10T17:46:29.288Z,46.53
2023-05-10T17:49:00.677Z,47.32
2023-05-10T17:51:32.270Z,47.72
2023-05-10T17:54:03.341Z,47.83
2023-05-10T17:56:34.666Z,47.95
2023-05-10T17:59:06.602Z,48.29
2023-05-10T18:01:37.868Z,48.38
2023-05-10T18:04:09.399Z,48.76
2023-05-10T18:06:41.642Z,48.63
2023-05-10T18:09:12.805Z,49.29
2023-05-10T18:11:43.882Z,49.53
2023-05-10T18:14:17.122Z,50.01
2023-05-10T18:16:51.926Z,49.71
2023-05-10T18:19:25.062Z,49.61
2023-05-10T18:21:56.167Z,50.16
2023-05-10T18:24:38.407Z,50.22
2023-05-10T18:27:15.411Z,50.66
2023-05-10T18:29:46.523Z,50.78
2023-05-10T18:32:17.583Z,51.16
2023-05-10T18:34:48.879Z,51.23
2023-05-10T18:37:20.159Z,51.03
2023-05-10T18:39:51.708Z,51.07
2023-05-10T18:42:22.876Z,51.28
2023-05-10T18:44:53.721Z,51.64
2023-05-10T18:47:26.529Z,51.87
2023-05-10T18:49:57.952Z,51.99
2023-05-10T18:52:55.219Z,52.34
2023-05-10T18:55:34.770Z,52.54
2023-05-10T18:58:06.209Z,52.22
2023-05-10T19:00:37.292Z,52.34
2023-05-10T19:03:08.605Z,52.63
2023-05-10T19:05:39.717Z,52.78
2023-05-10T19:08:11.005Z,52.86
2023-05-10T19:10:42.354Z,53.05
2023-05-10T19:13:15.052Z,53.23
2023-05-10T19:15:46.564Z,53.48
2023-05-10T19:18:17.672Z,53.60
2023-05-10T19:20:48.632Z,53.77
2023-05-10T19:23:19.639Z,53.78
2023-05-10T19:25:50.722Z,53.95
2023-05-10T19:28:21.895Z,54.20
2023-05-10T19:30:53.086Z,54.40
2023-05-10T19:33:24.404Z,54.76
2023-05-10T19:35:55.560Z,54.99
2023-05-10T19:38:27.174Z,55.12
2023-05-10T19:40:59.528Z,55.28
2023-05-10T19:43:34.243Z,55.86
2023-05-10T19:46:05.873Z,55.93
2023-05-10T19:48:36.765Z,55.85
2023-05-10T19:51:10.275Z,55.95
2023-05-10T19:53:44.816Z,56.17
2023-05-10T19:56:18.218Z,55.95
2023-05-10T19:58:49.456Z,56.04
2023-05-10T20:01:20.479Z,56.10
2023-05-10T20:03:51.723Z,56.38
2023-05-10T20:06:23.192Z,56.60
2023-05-10T20:08:54.534Z,56.66
2023-05-10T20:11:25.606Z,56.48
2023-05-10T20:13:56.530Z,56.82
2023-05-10T20:16:28.047Z,56.58
2023-05-10T20:18:59.131Z,56.82
2023-05-10T20:21:30.163Z,57.07
2023-05-10T20:24:01.315Z,56.61
2023-05-10T20:26:34.190Z,56.75
2023-05-10T20:29:05.553Z,56.76
2023-05-10T20:31:36.685Z,56.79
2023-05-10T20:34:07.946Z,56.97
2023-05-10T20:36:39.074Z,57.18
2023-05-10T20:39:10.647Z,57.33
2023-05-10T20:41:42.127Z,57.08
2023-05-10T20:44:13.187Z,57.65
2023-05-10T20:46:45.090Z,57.36
2023-05-10T20:49:16.094Z,57.27
2023-05-10T20:51:47.489Z,57.64
2023-05-10T20:54:18.724Z,57.14
2023-05-10T20:56:49.899Z,57.17
2023-05-10T20:59:22.159Z,57.09
2023-05-10T21:01:53.630Z,57.02
2023-05-10T21:04:26.041Z,57.38
2023-05-10T21:06:57.210Z,57.24
2023-05-10T21:09:28.352Z,56.96
2023-05-10T21:12:01.631Z,56.77
2023-05-10T21:14:33.068Z,57.05
2023-05-10T21:17:04.557Z,56.96
2023-05-10T21:19:35.747Z,57.04
2023-05-10T21:22:07.705Z,57.24
2023-05-10T21:24:39.275Z,57.31
2023-05-10T21:27:10.528Z,57.35
2023-05-10T21:29:41.603Z,57.43
2023-05-10T21:32:12.540Z,58.05
2023-05-10T21:34:43.635Z,58.22
2023-05-10T21:37:14.899Z,58.12
2023-05-10T21:39:46.219Z,58.12
2023-05-10T21:42:17.541Z,58.34
2023-05-10T21:44:48.658Z,58.45
2023-05-10T21:47:19.604Z,58.52
2023-05-10T21:49:51.979Z,58.79
2023-05-10T21:52:22.989Z,58.80
2023-05-10T21:54:54.005Z,58.68
2023-05-10T21:57:25.244Z,58.67
2023-05-10T21:59:56.460Z,58.65
2023-05-10T22:02:29.502Z,59.03
2023-05-10T22:05:02.213Z,58.80
2023-05-10T22:07:35.223Z,59.05
2023-05-10T22:10:07.380Z,59.24
2023-05-10T22:12:38.375Z,59.37
2023-05-10T22:15:11.199Z,59.41
2023-05-10T22:17:42.571Z,59.79
2023-05-10T22:20:14.108Z,59.55
2023-05-10T22:22:45.094Z,59.49
2023-05-10T22:25:16.713Z,59.58
2023-05-10T22:27:48.168Z,59.87
2023-05-10T22:30:20.492Z,59.75
2023-05-10T22:32:51.803Z,59.75
2023-05-10T22:35:23.120Z,59.77
2023-05-10T22:37:54.646Z,59.92
2023-05-10T22:40:25.714Z,59.63
2023-05-10T22:42:56.713Z,59.48
2023-05-10T22:45:28.359Z,59.61
2023-05-10T22:48:00.781Z,59.58
2023-05-10T22:50:33.233Z,59.89
2023-05-10T22:53:04.480Z,59.79
2023-05-10T22:55:36.612Z,59.75
2023-05-10T22:58:08.044Z,59.81
2023-05-10T23:00:39.807Z,60.02
2023-05-10T23:03:10.828Z,60.09
2023-05-10T23:05:41.862Z,59.98
2023-05-10T23:08:12.940Z,60.15
2023-05-10T23:10:44.054Z,60.19
2023-05-10T23:13:15.408Z,60.00
2023-05-10T23:15:46.658Z,60.02
2023-05-10T23:18:17.760Z,60.09
2023-05-10T23:20:48.973Z,59.82
2023-05-10T23:23:19.875Z,60.29
2023-05-10T23:25:51.645Z,60.18
2023-05-10T23:28:22.578Z,60.36
2023-05-10T23:30:58.551Z,60.09
2023-05-10T23:33:29.674Z,60.04
2023-05-10T23:36:00.600Z,60.30
2023-05-10T23:38:32.600Z,60.29
2023-05-10T23:41:03.544Z,60.21
2023-05-10T23:43:34.589Z,60.02
2023-05-10T23:46:06.679Z,60.37
2023-05-10T23:48:37.843Z,60.24
2023-05-10T23:51:09.264Z,60.11
2023-05-10T23:53:40.351Z,60.32
2023-05-10T23:56:12.145Z,60.54
2023-05-10T23:58:44.313Z,60.51
